• Join FlightAware (Why Join?)
  • Login
  • US Flag 
10:22PM EDT


 

Airport Tracker/Info


-or-


 

Live Flight TrackerFlight Track Log ✈ UAL4115 ✈ 22-Apr-2013 ✈ MMGL / GDL - KIAH

Flight Track Log - Related Links

Times and Time Zones

All times are in EDT time to prevent confusion due to time zone crossing. See the UAL4115 flight status page for this flight to view local times or setup timezone preferences in your user account.

Time Position Orientation Groundspeed Altitude Reporting Facility
EDT Latitude Longitude Course Direction KTS MPH feet Rate Location/Type
08:19AM 25.9683 -99.8542 48° Northeast 510 587 35,000  Level Houston Center
08:20AM 26.0650 -99.7364 48° Northeast 512 589 35,000  Level Houston Center
08:21AM 26.1628 -99.6228 46° Northeast 512 589 35,000  Level Houston Center
08:22AM 26.2636 -99.5131 44° Northeast 511 588 35,000  Level Houston Center
08:23AM 26.3689 -99.4083 42° Northeast 509 586 35,000  Level Houston Center
08:24AM 26.4742 -99.3067 41° Northeast 503 579 35,000  Level Houston Center
08:25AM 26.5792 -99.2042 41° Northeast 502 578 35,000  Level Houston Center
08:26AM 26.7050 -99.0800 41° Northeast 504 580 35,000  Level Houston Center
08:27AM 26.8081 -98.9761 42° Northeast 502 578 35,000  Level Houston Center
08:28AM 26.9136 -98.8719 41° Northeast 506 582 35,000  Level Houston Center
08:29AM 27.0186 -98.7678 41° Northeast 507 583 35,000  Level Houston Center
08:30AM 27.1233 -98.6633 42° Northeast 509 586 35,000  Level Houston Center
08:31AM 27.2275 -98.5592 42° Northeast 507 583 35,000  Level Houston Center
08:32AM 27.3528 -98.4325 42° Northeast 509 586 35,000  Level Houston Center
08:33AM 27.4575 -98.3269 42° Northeast 509 586 35,000  Level Houston Center
08:34AM 27.5622 -98.2217 42° Northeast 508 585 35,000  Level Houston Center
08:35AM 27.6669 -98.1156 42° Northeast 508 585 35,000  Level Houston Center
08:36AM 27.7725 -98.0097 42° Northeast 509 586 35,000  Level Houston Center
08:37AM 27.8772 -97.9042 42° Northeast 506 582 35,000  Level Houston Center
08:38AM 27.9803 -97.7975 42° Northeast 504 580 35,000  Level Houston Center
08:39AM 28.1008 -97.6742 42° Northeast 501 577 35,000  Level Houston Center
08:40AM 28.2044 -97.5694 42° Northeast 500 575 35,000  Level Houston Center
08:41AM 28.3069 -97.4636 42° Northeast 498 573 35,000  Level Houston Center
08:42AM 28.4086 -97.3597 42° Northeast 494 568 35,000  Level Houston Center
08:43AM 28.5092 -97.2544 43° Northeast 492 566 35,000 -420 Level Houston Center
08:44AM 28.6114 -97.1506 42° Northeast 493 567 34,200 -1,860 Descending Houston Center
08:45AM 28.7303 -97.0269 42° Northeast 486 559 31,200 -2,640 Descending Houston Center
08:46AM 28.8264 -96.9267 42° Northeast 472 543 28,800 -2,400 Descending Houston Center
08:47AM 28.9211 -96.8272 43° Northeast 464 534 26,300 -2,460 Descending Houston Center
08:49AM 29.0169 -96.7267 43° Northeast 471 542 23,800 -2,400 Descending Houston Center
08:50AM 29.1092 -96.6283 43° Northeast 462 532 21,400 -2,340 Descending Houston Center
08:51AM 29.1969 -96.5367 42° Northeast 435 501 19,100 -2,460 Descending Houston Center
08:52AM 29.2964 -96.4314 43° Northeast 411 473 16,400 -2,520 Descending Houston Center
08:53AM 29.3761 -96.3461 43° Northeast 408 470 14,200 -2,280 Descending Houston Center
08:54AM 29.4553 -96.2631 42° Northeast 377 434 12,100 -1,140 Descending Houston Center
08:55AM 29.5261 -96.1856 44° Northeast 343 395 12,000 -60 Descending Houston Center
08:56AM 29.5794 -96.0956 56° Northeast 342 394 12,000  Level Houston Center
08:57AM 29.6333 -95.9933 59° Northeast 352 405 12,000 -180 Level Houston Center
08:58AM 29.6817 -95.8967 60° Northeast 347 399 11,700 -540 Descending Houston Center
08:59AM 29.7297 -95.7997 60° Northeast 344 396 11,000 -720 Descending Houston Center
09:00AM 29.7744 -95.7128 59° Northeast 283 326 10,300 -1,200 Descending Houston Center
09:01AM 29.8119 -95.6361 61° Northeast 277 319 8,600 -1,740 Descending Houston Center
09:02AM 29.8508 -95.5569 60° Northeast 267 307 6,800 -1,320 Descending Houston Center
09:03AM 29.8867 -95.4875 59° Northeast 248 285 6,000 -360 Descending Houston Center
09:04AM 29.8967 -95.4008 82° East 263 303 6,000  Level Houston Center
09:05AM 29.8964 -95.3131 90° East 273 314 6,000 -120 Level Houston Center
09:06AM 29.8956 -95.2189 91° East 275 316 5,800 -1,020 Descending Houston Center
09:07AM 29.8967 -95.1394 89° East 265 305 4,200 -1,800 Descending Houston Center
09:08AM 29.9000 -95.0617 87° East 248 285 2,400 -1,680 Descending Houston Center
09:08AM 29.9114 -95.0478 47° Northeast 272 313 2,100 -420 Descending Houston Center
09:09AM 29.9508 -95.0675 337° Northwest 227 261 2,000 -120 Descending Houston Center
09:09AM 29.9611 -95.0811 311° West 242 278 2,000 60 Level Houston Center
09:10AM 29.9800 -95.1314 293° West 230 265 2,100 60 Climbing Houston Center
09:10AM 29.9786 -95.1475 264° West 229 264 2,100 -300 Level Houston Center
09:11AM 29.9764 -95.2067 268° West 217 250 1,800 -420 Descending Houston Center
09:11AM 29.9775 -95.2167 277° West 220 253 1,700 -900 Descending Houston Center
09:12AM 29.9772 -95.2619 270° West 159 183 900 -1,020 Descending Houston Center
09:12AM 29.9781 -95.2697 277° West 184 212 700 -480 Descending Houston Center
09:13AM 29.9783 -95.3239 270° West 170 196 300 -420 Descending Houston Center